Time;durP1;ratioP1;P1;durP2;ratioP2;P2;SDS_P1;SDS_P2;PMS_P1;PMS_P2;Temp;Humidity;BMP_temperature;BMP_pressure;BME280_temperature;BME280_humidity;BME280_pressure;Samples;Min_cycle;Max_cycle;Signal;HPM_P1;HPM_P2
2022/11/13 00:00:51;;;;;;;6.07;3.55;;;15.30;81.30;;;;;;5032099;28;20069;-82
2022/11/13 00:03:17;;;;;;;4.88;3.40;;;15.20;81.20;;;;;;5032925;28;20432;-84
2022/11/13 00:05:43;;;;;;;4.53;3.13;;;15.20;81.40;;;;;;5032961;28;20028;-84
2022/11/13 00:08:08;;;;;;;4.38;2.97;;;15.20;81.10;;;;;;5033079;28;20443;-85
2022/11/13 00:10:34;;;;;;;5.95;3.65;;;15.10;81.40;;;;;;5033250;28;20021;-85
2022/11/13 00:13:00;;;;;;;4.20;2.88;;;15.10;81.40;;;;;;5030097;28;20026;-85
2022/11/13 00:15:25;;;;;;;4.15;2.85;;;15.10;81.10;;;;;;5013487;28;20096;-84
2022/11/13 00:17:51;;;;;;;4.60;3.05;;;15.10;81.50;;;;;;5013617;28;20026;-85
2022/11/13 00:20:18;;;;;;;5.43;3.30;;;15.10;81.00;;;;;;5013041;28;20014;-85
2022/11/13 00:22:44;;;;;;;4.72;3.00;;;15.10;81.40;;;;;;5013679;28;20030;-77
2022/11/13 00:25:09;;;;;;;4.88;3.15;;;15.10;80.90;;;;;;5036423;28;20024;-77
2022/11/13 00:27:35;;;;;;;5.32;2.95;;;15.10;81.30;;;;;;5034897;28;20372;-77
2022/11/13 00:30:01;;;;;;;5.57;3.10;;;15.10;81.30;;;;;;5033460;28;20025;-77
2022/11/13 00:32:27;;;;;;;8.05;3.33;;;15.10;80.60;;;;;;5036696;28;20033;-84
2022/11/13 00:34:53;;;;;;;4.55;2.72;;;15.10;80.50;;;;;;5035606;28;20040;-81
2022/11/13 00:37:19;;;;;;;5.10;3.08;;;15.00;80.50;;;;;;5032397;28;20117;-82
2022/11/13 00:39:45;;;;;;;7.20;3.75;;;15.10;81.10;;;;;;5033906;28;20092;-78
2022/11/13 00:42:11;;;;;;;6.68;3.72;;;15.00;80.00;;;;;;5020139;28;20037;-76
2022/11/13 00:44:36;;;;;;;4.80;3.17;;;15.00;80.90;;;;;;5032491;28;20028;-79
2022/11/13 00:47:02;;;;;;;3.65;2.70;;;14.90;81.20;;;;;;5033458;28;20109;-80
2022/11/13 00:49:28;;;;;;;4.50;3.20;;;14.90;81.40;;;;;;5032169;28;20073;-78
2022/11/13 00:51:53;;;;;;;6.20;3.53;;;15.00;81.50;;;;;;5034214;28;20449;-79
2022/11/13 00:54:19;;;;;;;3.58;2.67;;;15.00;81.60;;;;;;5034935;28;20067;-78
2022/11/13 00:56:45;;;;;;;4.43;2.72;;;15.00;81.60;;;;;;5035591;28;20033;-78
2022/11/13 00:59:10;;;;;;;5.80;2.67;;;15.00;81.70;;;;;;5034495;28;20362;-78
2022/11/13 01:01:36;;;;;;;5.68;3.00;;;14.90;81.20;;;;;;5033411;28;20457;-78
2022/11/13 01:04:02;;;;;;;4.55;2.75;;;15.00;80.90;;;;;;5033745;28;20107;-78
2022/11/13 01:06:28;;;;;;;3.95;2.20;;;14.90;81.40;;;;;;5034430;28;20030;-76
2022/11/13 01:08:55;;;;;;;5.22;2.88;;;14.90;81.80;;;;;;5033371;28;20049;-76
2022/11/13 01:11:24;;;;;;;4.43;2.63;;;14.90;81.40;;;;;;5035023;28;20041;-76
2022/11/13 01:13:51;;;;;;;6.00;2.65;;;14.90;81.80;;;;;;5033918;28;20462;-77
2022/11/13 01:16:20;;;;;;;4.22;2.40;;;14.90;81.80;;;;;;5031431;28;20041;-77
2022/11/13 01:18:46;;;;;;;2.95;1.92;;;14.90;81.90;;;;;;5033785;28;20038;-76
2022/11/13 01:21:13;;;;;;;5.95;2.92;;;14.90;82.00;;;;;;5035391;28;20158;-76
2022/11/13 01:23:39;;;;;;;4.35;2.47;;;14.90;81.70;;;;;;5033671;28;20025;-77
2022/11/13 01:26:18;;;;;;;6.20;2.85;;;14.90;82.10;;;;;;5034526;28;20040;-77
2022/11/13 01:28:45;;;;;;;7.28;2.55;;;14.90;82.10;;;;;;5029148;28;20079;-80
2022/11/13 01:31:17;;;;;;;4.15;2.33;;;14.90;81.80;;;;;;5033261;28;20044;-81
2022/11/13 01:33:44;;;;;;;5.22;2.47;;;14.90;81.80;;;;;;5033867;28;20037;-80
2022/11/13 01:36:22;;;;;;;3.92;2.40;;;14.90;81.90;;;;;;5033541;28;20048;-80
2022/11/13 01:38:49;;;;;;;3.17;2.28;;;14.90;81.60;;;;;;5033788;28;20107;-80
2022/11/13 01:41:18;;;;;;;2.97;2.03;;;14.90;81.40;;;;;;5034469;28;20040;-80
2022/11/13 01:43:44;;;;;;;4.30;2.20;;;14.80;79.90;;;;;;5035057;28;20424;-80
2022/11/13 01:46:25;;;;;;;5.55;2.63;;;14.90;80.60;;;;;;5033180;28;20032;-80
2022/11/13 01:48:56;;;;;;;4.78;2.30;;;14.90;79.40;;;;;;5033822;28;20037;-81
2022/11/13 01:51:30;;;;;;;3.90;2.28;;;14.90;79.70;;;;;;5034498;28;20117;-79
2022/11/13 01:53:58;;;;;;;2.92;1.95;;;14.90;78.60;;;;;;5034649;28;20110;-83
2022/11/13 01:56:24;;;;;;;3.63;2.40;;;15.70;79.00;;;;;;5034281;28;20033;-82
2022/11/13 01:58:59;;;;;;;2.97;1.88;;;14.90;78.80;;;;;;5033867;28;20033;-82
2022/11/13 02:01:24;;;;;;;2.55;2.20;;;14.90;78.40;;;;;;5034058;28;20120;-82
2022/11/13 02:03:50;;;;;;;4.10;2.17;;;14.90;77.00;;;;;;5034837;28;20065;-83
2022/11/13 02:06:16;;;;;;;3.05;1.90;;;14.80;77.20;;;;;;5033170;28;20041;-82
2022/11/13 02:08:43;;;;;;;4.40;2.20;;;14.90;77.30;;;;;;5034911;28;20025;-82
2022/11/13 02:11:10;;;;;;;3.78;2.45;;;14.80;76.20;;;;;;5032482;28;20044;-81
2022/11/13 02:13:37;;;;;;;3.13;1.75;;;14.70;75.40;;;;;;5033623;28;20513;-80
2022/11/13 02:16:05;;;;;;;3.28;2.13;;;14.70;76.80;;;;;;5029851;28;20026;-79
2022/11/13 02:18:33;;;;;;;3.67;2.25;;;14.70;76.10;;;;;;5033634;28;20049;-80
2022/11/13 02:21:25;;;;;;;5.93;1.80;;;14.70;75.90;;;;;;5034668;28;20576;-82
2022/11/13 02:24:12;;;;;;;2.17;1.73;;;14.70;76.30;;;;;;5032507;28;20134;-81
2022/11/13 02:26:39;;;;;;;3.03;2.13;;;14.70;75.00;;;;;;5023129;28;20104;-78
2022/11/13 02:29:05;;;;;;;3.28;1.85;;;14.70;75.70;;;;;;5034975;28;20462;-78
2022/11/13 02:31:31;;;;;;;2.50;1.90;;;;;;;;;;5032658;28;20033;-78
2022/11/13 02:33:56;;;;;;;4.10;2.25;;;14.70;74.30;;;;;;5033802;28;20033;-78
2022/11/13 02:36:24;;;;;;;4.20;1.85;;;14.70;75.40;;;;;;5031689;28;20377;-78
2022/11/13 02:38:53;;;;;;;2.58;1.95;;;14.70;74.80;;;;;;5022320;28;20037;-77
2022/11/13 02:41:18;;;;;;;2.58;1.75;;;14.70;74.20;;;;;;5032199;28;20099;-78
2022/11/13 02:43:44;;;;;;;3.15;2.13;;;14.60;74.80;;;;;;5034150;28;20033;-78
2022/11/13 02:46:09;;;;;;;3.08;1.90;;;14.60;74.90;;;;;;5031296;28;20083;-77
2022/11/13 02:48:35;;;;;;;1.90;1.50;;;14.60;74.60;;;;;;5036587;28;20020;-80
2022/11/13 02:51:01;;;;;;;3.90;1.70;;;14.70;74.80;;;;;;5036135;28;20025;-81
2022/11/13 02:53:26;;;;;;;2.55;1.88;;;14.70;74.50;;;;;;5032330;28;20108;-81
2022/11/13 02:55:52;;;;;;;3.13;1.67;;;14.70;74.80;;;;;;5033389;28;20036;-81
2022/11/13 02:58:18;;;;;;;2.70;1.92;;;14.70;74.40;;;;;;5032035;28;20501;-81
2022/11/13 03:00:43;;;;;;;4.03;2.30;;;14.80;74.40;;;;;;5031770;28;20508;-81
2022/11/13 03:03:09;;;;;;;2.58;1.83;;;;;;;;;;5032135;28;20489;-81
2022/11/13 03:05:35;;;;;;;3.00;1.90;;;14.80;73.70;;;;;;5032834;28;20038;-81
2022/11/13 03:08:01;;;;;;;2.92;1.80;;;14.70;73.50;;;;;;5031068;28;20052;-82
2022/11/13 03:10:26;;;;;;;3.55;1.85;;;14.80;74.00;;;;;;5033714;28;20047;-81
2022/11/13 03:12:52;;;;;;;2.65;1.90;;;14.70;73.40;;;;;;5031712;28;20033;-81
2022/11/13 03:15:18;;;;;;;2.30;1.95;;;14.80;73.90;;;;;;5033503;28;20409;-81
2022/11/13 03:17:43;;;;;;;2.70;2.08;;;14.70;73.50;;;;;;5032113;28;20025;-81
2022/11/13 03:20:09;;;;;;;2.42;1.55;;;14.80;73.80;;;;;;5032508;28;20029;-80
2022/11/13 03:22:35;;;;;;;2.47;1.73;;;14.80;73.70;;;;;;5032235;28;20029;-81
2022/11/13 03:25:01;;;;;;;2.58;1.90;;;14.70;73.80;;;;;;5033392;28;20025;-81
2022/11/13 03:27:26;;;;;;;2.60;1.60;;;14.70;73.50;;;;;;5031031;28;20029;-81
2022/11/13 03:29:52;;;;;;;3.42;1.55;;;14.70;73.90;;;;;;5033504;28;20377;-82
2022/11/13 03:32:18;;;;;;;3.58;1.90;;;14.70;74.10;;;;;;5032990;28;20033;-82
2022/11/13 03:34:44;;;;;;;3.13;2.00;;;14.70;73.20;;;;;;5033298;28;20030;-81
2022/11/13 03:37:09;;;;;;;3.28;1.88;;;14.70;73.90;;;;;;5030620;28;20560;-82
2022/11/13 03:39:35;;;;;;;2.90;2.03;;;;;;;;;;5033377;28;20041;-82
2022/11/13 03:42:01;;;;;;;2.85;1.92;;;14.70;73.60;;;;;;5030255;28;20071;-81
2022/11/13 03:44:27;;;;;;;2.58;1.75;;;14.70;74.20;;;;;;5032439;28;20101;-81
2022/11/13 03:46:52;;;;;;;5.35;2.25;;;14.60;74.30;;;;;;5030176;28;20029;-78
2022/11/13 03:49:18;;;;;;;2.67;1.70;;;14.60;74.20;;;;;;5031601;28;20025;-77
2022/11/13 03:51:44;;;;;;;3.47;2.00;;;;;;;;;;5031458;28;20470;-77
2022/11/13 03:54:10;;;;;;;3.22;1.95;;;14.60;73.90;;;;;;5032757;28;20037;-77
2022/11/13 03:56:35;;;;;;;3.17;2.00;;;14.70;74.30;;;;;;5031792;28;20385;-77
2022/11/13 03:59:01;;;;;;;2.22;1.88;;;14.60;74.20;;;;;;5032097;28;20037;-78
2022/11/13 04:01:26;;;;;;;3.08;2.08;;;14.50;73.80;;;;;;5032400;28;20029;-78
2022/11/13 04:03:52;;;;;;;3.92;2.35;;;14.60;74.40;;;;;;5032980;28;20038;-78
2022/11/13 04:06:18;;;;;;;3.63;2.30;;;14.60;74.30;;;;;;5030188;28;20029;-77
2022/11/13 04:08:43;;;;;;;2.63;1.92;;;14.60;74.50;;;;;;5032064;28;20359;-76
2022/11/13 04:11:11;;;;;;;5.70;2.30;;;14.60;74.50;;;;;;5031949;28;20060;-77
2022/11/13 04:13:37;;;;;;;2.10;1.90;;;14.60;74.50;;;;;;5030497;28;20465;-78
2022/11/13 04:16:03;;;;;;;4.63;2.67;;;14.60;74.40;;;;;;5031921;28;20032;-79
2022/11/13 04:18:29;;;;;;;2.35;1.83;;;14.50;74.40;;;;;;5031830;28;20033;-79
2022/11/13 04:20:59;;;;;;;4.47;2.30;;;14.60;74.50;;;;;;5032456;28;20051;-79
2022/11/13 04:23:25;;;;;;;2.80;2.08;;;14.60;74.50;;;;;;5030144;28;20033;-79
2022/11/13 04:25:51;;;;;;;4.00;2.58;;;14.50;74.40;;;;;;5032369;28;20026;-77
2022/11/13 04:28:16;;;;;;;5.55;2.20;;;14.50;74.60;;;;;;5031643;28;20061;-78
2022/11/13 04:30:42;;;;;;;2.60;1.88;;;14.50;74.80;;;;;;5032653;28;20534;-78
2022/11/13 04:33:08;;;;;;;4.32;2.63;;;14.50;74.80;;;;;;5031394;28;20511;-78
2022/11/13 04:35:34;;;;;;;4.75;2.47;;;14.50;74.40;;;;;;5032709;28;20033;-79
2022/11/13 04:38:00;;;;;;;4.43;2.80;;;;;;;;;;5025426;28;20036;-80
2022/11/13 04:40:26;;;;;;;3.80;2.30;;;14.50;74.60;;;;;;5030926;28;20026;-80
2022/11/13 04:42:51;;;;;;;4.28;2.35;;;14.40;74.40;;;;;;5029344;28;20493;-79
2022/11/13 04:45:19;;;;;;;3.45;2.13;;;;;;;;;;5031152;28;20030;-80
2022/11/13 04:47:45;;;;;;;4.05;2.67;;;14.40;74.40;;;;;;5029872;28;20737;-78
2022/11/13 04:50:12;;;;;;;4.88;2.70;;;14.40;74.80;;;;;;5031010;28;20546;-78
2022/11/13 04:52:37;;;;;;;3.67;2.60;;;14.30;75.20;;;;;;5029479;28;20037;-79
2022/11/13 04:55:04;;;;;;;4.28;2.60;;;14.30;75.50;;;;;;5031241;28;20033;-77
2022/11/13 04:57:30;;;;;;;3.55;2.85;;;14.20;75.50;;;;;;5029964;28;20168;-78
2022/11/13 04:59:55;;;;;;;4.50;3.20;;;14.20;75.20;;;;;;5032035;28;20065;-78
2022/11/13 05:02:21;;;;;;;4.63;2.63;;;14.10;75.60;;;;;;5030399;28;20436;-78
2022/11/13 05:04:47;;;;;;;4.05;3.03;;;14.10;75.80;;;;;;5032357;28;20025;-80
2022/11/13 05:07:13;;;;;;;4.50;2.85;;;14.10;75.80;;;;;;5030477;28;20088;-77
2022/11/13 05:09:38;;;;;;;4.72;3.40;;;14.10;76.30;;;;;;5032003;28;20030;-78
2022/11/13 05:12:06;;;;;;;4.88;2.70;;;14.10;76.40;;;;;;5034884;28;20038;-79
2022/11/13 05:14:34;;;;;;;5.25;2.75;;;14.10;76.50;;;;;;5034407;28;20117;-77
2022/11/13 05:17:00;;;;;;;4.07;2.90;;;14.10;76.60;;;;;;5033361;28;20062;-77
2022/11/13 05:19:26;;;;;;;6.65;2.85;;;14.00;76.30;;;;;;5035791;28;20064;-78
2022/11/13 05:21:51;;;;;;;3.90;2.80;;;14.00;76.70;;;;;;5034309;28;20485;-77
2022/11/13 05:24:17;;;;;;;4.07;3.20;;;14.00;76.40;;;;;;5034013;28;20136;-79
2022/11/13 05:26:43;;;;;;;5.22;2.90;;;14.00;76.50;;;;;;5034678;28;20029;-78
2022/11/13 05:29:08;;;;;;;5.95;3.10;;;13.90;76.90;;;;;;5035703;28;20025;-76
2022/11/13 05:31:34;;;;;;;3.70;2.75;;;13.90;77.20;;;;;;5034169;28;20057;-77
2022/11/13 05:34:03;;;;;;;3.70;2.72;;;13.90;77.30;;;;;;5035267;28;20109;-77
2022/11/13 05:36:29;;;;;;;4.68;2.97;;;13.90;77.50;;;;;;5021837;28;20473;-76
2022/11/13 05:38:54;;;;;;;3.65;2.40;;;13.90;77.00;;;;;;5034143;28;20025;-76
2022/11/13 05:41:21;;;;;;;4.15;2.97;;;13.90;77.30;;;;;;5034289;28;20037;-76
2022/11/13 05:43:48;;;;;;;4.22;2.88;;;13.90;77.40;;;;;;5034810;28;20033;-77
2022/11/13 05:46:18;;;;;;;4.32;2.42;;;13.90;77.10;;;;;;5033568;28;20029;-75
2022/11/13 05:48:44;;;;;;;4.25;2.85;;;;;;;;;;5034825;28;20033;-77
2022/11/13 05:51:16;;;;;;;4.18;2.88;;;13.80;77.50;;;;;;5034615;28;20112;-82
2022/11/13 05:53:42;;;;;;;4.05;2.58;;;;;;;;;;5032402;28;20481;-82
2022/11/13 05:56:13;;;;;;;5.03;2.88;;;13.80;78.00;;;;;;5031623;28;20031;-81
2022/11/13 05:58:41;;;;;;;3.17;2.55;;;13.80;78.10;;;;;;5033285;28;20109;-81
2022/11/13 06:01:23;;;;;;;3.60;3.03;;;13.70;78.40;;;;;;5032804;28;20037;-82
2022/11/13 06:03:49;;;;;;;3.42;2.72;;;13.80;78.10;;;;;;5021462;28;20026;-83
2022/11/13 06:06:17;;;;;;;4.03;2.47;;;13.70;78.00;;;;;;5033005;28;20080;-82
2022/11/13 06:08:44;;;;;;;7.10;3.10;;;13.80;78.40;;;;;;5031117;28;20433;-83
2022/11/13 06:11:14;;;;;;;3.83;2.47;;;13.80;78.10;;;;;;5034548;28;20041;-83
2022/11/13 06:13:40;;;;;;;4.88;2.88;;;13.80;78.30;;;;;;5026918;28;20072;-83
2022/11/13 06:16:17;;;;;;;6.95;3.10;;;13.80;78.80;;;;;;5034102;28;20520;-82
2022/11/13 06:18:44;;;;;;;3.00;2.00;;;13.80;78.90;;;;;;5025395;28;20025;-82
2022/11/13 06:21:19;;;;;;;4.35;2.35;;;13.80;79.20;;;;;;5034073;28;20037;-81
2022/11/13 06:23:45;;;;;;;3.85;2.20;;;;;;;;;;5032795;28;20025;-82
2022/11/13 06:26:17;;;;;;;4.03;2.40;;;13.80;79.50;;;;;;5031771;28;20462;-81
2022/11/13 06:28:43;;;;;;;3.53;2.35;;;13.70;80.00;;;;;;5033139;28;20331;-81
2022/11/13 06:31:12;;;;;;;2.67;2.08;;;13.70;79.80;;;;;;5032982;28;20045;-78
2022/11/13 06:33:39;;;;;;;3.25;2.40;;;13.70;80.60;;;;;;5031027;28;20053;-74
2022/11/13 06:36:07;;;;;;;5.07;3.05;;;13.80;80.60;;;;;;5025624;28;20394;-73
2022/11/13 06:38:35;;;;;;;4.13;2.40;;;13.70;80.60;;;;;;5033443;28;20025;-74
2022/11/13 06:41:02;;;;;;;5.28;2.90;;;13.70;80.60;;;;;;5032573;28;20116;-75
2022/11/13 06:43:28;;;;;;;3.28;2.60;;;13.70;80.60;;;;;;5033574;28;20447;-74
2022/11/13 06:45:54;;;;;;;4.78;2.80;;;13.70;80.50;;;;;;5032586;28;20116;-74
2022/11/13 06:48:21;;;;;;;5.55;2.92;;;13.70;80.50;;;;;;5033583;28;20100;-80
2022/11/13 06:50:47;;;;;;;3.53;2.33;;;13.70;80.30;;;;;;5032191;28;20072;-80
2022/11/13 06:53:13;;;;;;;3.53;2.75;;;13.70;80.70;;;;;;5029694;28;20025;-72
2022/11/13 06:55:47;;;;;;;7.18;3.20;;;13.70;80.50;;;;;;5030976;28;20030;-80
2022/11/13 06:58:13;;;;;;;5.28;2.65;;;13.70;80.30;;;;;;5029568;28;20420;-73
2022/11/13 07:00:40;;;;;;;4.63;2.90;;;13.70;80.40;;;;;;5030975;28;20021;-73
2022/11/13 07:03:05;;;;;;;4.95;2.80;;;13.70;80.50;;;;;;5030513;28;20030;-72
2022/11/13 07:05:35;;;;;;;5.90;3.58;;;13.70;80.60;;;;;;5033250;28;20108;-73
2022/11/13 07:08:00;;;;;;;4.80;2.90;;;13.70;80.40;;;;;;5028498;28;20103;-73
2022/11/13 07:10:26;;;;;;;5.15;2.95;;;13.60;80.50;;;;;;5031293;28;20496;-73
2022/11/13 07:12:52;;;;;;;4.63;3.10;;;;;;;;;;5031472;28;20380;-79
2022/11/13 07:15:18;;;;;;;7.13;2.90;;;13.60;80.50;;;;;;5031778;28;20079;-75
2022/11/13 07:17:43;;;;;;;9.68;3.70;;;13.60;81.00;;;;;;5026117;28;20034;-75
2022/11/13 07:20:10;;;;;;;4.95;3.03;;;13.70;81.00;;;;;;5033117;28;20086;-75
2022/11/13 07:22:35;;;;;;;8.10;4.22;;;13.70;81.10;;;;;;5033558;28;20052;-76
2022/11/13 07:25:01;;;;;;;4.13;3.10;;;13.70;81.30;;;;;;5031067;28;20068;-75
2022/11/13 07:27:27;;;;;;;5.90;2.78;;;13.80;80.90;;;;;;5032235;28;20592;-74
2022/11/13 07:29:52;;;;;;;5.40;3.15;;;13.80;81.30;;;;;;5032500;28;20029;-75
2022/11/13 07:32:18;;;;;;;4.70;2.80;;;13.80;81.40;;;;;;5032704;28;20041;-74
2022/11/13 07:34:44;;;;;;;7.85;4.32;;;13.90;81.50;;;;;;5030206;28;20033;-75
2022/11/13 07:37:09;;;;;;;4.78;3.65;;;13.90;81.50;;;;;;5031991;28;20033;-74
2022/11/13 07:39:35;;;;;;;8.27;3.97;;;13.90;81.60;;;;;;5031267;28;20032;-75
2022/11/13 07:42:00;;;;;;;8.07;3.92;;;13.90;81.70;;;;;;5032553;28;20041;-74
2022/11/13 07:44:26;;;;;;;10.10;5.03;;;14.00;81.80;;;;;;5033584;28;20033;-74
2022/11/13 07:46:52;;;;;;;10.27;4.60;;;14.00;82.20;;;;;;5033292;28;20079;-75
2022/11/13 07:49:17;;;;;;;8.85;4.30;;;13.90;81.70;;;;;;5033331;28;20033;-75
2022/11/13 07:51:44;;;;;;;6.80;3.80;;;13.90;81.80;;;;;;5033381;28;20057;-74
2022/11/13 07:54:10;;;;;;;9.45;4.07;;;13.90;81.90;;;;;;5032626;28;20027;-75
2022/11/13 07:56:36;;;;;;;6.38;3.83;;;14.00;80.90;;;;;;5031173;28;20042;-75
2022/11/13 07:59:01;;;;;;;5.25;3.35;;;14.00;81.50;;;;;;5033152;28;20025;-75
2022/11/13 08:01:27;;;;;;;4.85;3.25;;;14.00;81.00;;;;;;5032913;28;20525;-75
2022/11/13 08:03:53;;;;;;;6.75;3.90;;;14.00;80.80;;;;;;5031158;28;20109;-75
2022/11/13 08:06:18;;;;;;;5.45;2.80;;;13.90;80.40;;;;;;5028940;28;20061;-74
2022/11/13 08:08:47;;;;;;;4.68;3.13;;;13.90;80.60;;;;;;5029993;28;20034;-74
2022/11/13 08:11:13;;;;;;;3.38;2.63;;;14.00;81.20;;;;;;5032531;28;20041;-74
2022/11/13 08:13:38;;;;;;;5.13;3.22;;;14.00;80.60;;;;;;5030720;28;20040;-74
2022/11/13 08:16:05;;;;;;;4.75;2.75;;;14.10;80.00;;;;;;5031906;28;20064;-75
2022/11/13 08:18:31;;;;;;;4.63;2.83;;;14.20;80.60;;;;;;5033101;28;20029;-74
2022/11/13 08:21:01;;;;;;;4.43;3.20;;;14.30;80.40;;;;;;5032654;28;20074;-76
2022/11/13 08:23:27;;;;;;;3.47;3.08;;;14.30;79.40;;;;;;5032249;28;20021;-75
2022/11/13 08:25:52;;;;;;;3.80;2.92;;;14.40;78.60;;;;;;5032478;28;20474;-75
2022/11/13 08:28:18;;;;;;;3.92;2.92;;;14.50;79.20;;;;;;5030603;28;20549;-75
2022/11/13 08:30:44;;;;;;;4.93;3.22;;;;;;;;;;5032858;28;20044;-75
2022/11/13 08:33:10;;;;;;;3.67;2.97;;;14.70;77.80;;;;;;5032216;28;20022;-75
2022/11/13 08:35:36;;;;;;;4.88;3.28;;;14.80;78.70;;;;;;5031821;28;20140;-74
2022/11/13 08:38:06;;;;;;;3.38;2.63;;;14.80;77.40;;;;;;5033136;28;20030;-75
2022/11/13 08:40:33;;;;;;;3.67;2.65;;;14.90;77.30;;;;;;5033107;28;20045;-75
2022/11/13 08:43:01;;;;;;;4.45;2.58;;;14.90;76.70;;;;;;5032132;28;20049;-75
2022/11/13 08:45:28;;;;;;;4.28;3.00;;;14.90;76.30;;;;;;5026286;28;20021;-75
2022/11/13 08:47:54;;;;;;;4.38;2.85;;;;;;;;;;5026179;28;20030;-81
2022/11/13 08:50:20;;;;;;;4.38;3.03;;;;;;;;;;5037669;28;20128;-83
2022/11/13 08:52:46;;;;;;;6.68;3.60;;;15.10;76.90;;;;;;5028836;28;20401;-83
2022/11/13 08:55:12;;;;;;;6.38;2.25;;;15.10;76.40;;;;;;5034361;28;20543;-83
2022/11/13 08:57:39;;;;;;;4.22;3.00;;;15.20;77.00;;;;;;5032882;28;20104;-82
2022/11/13 09:00:05;;;;;;;3.75;2.88;;;;;;;;;;5034469;28;20384;-83
2022/11/13 09:02:34;;;;;;;5.72;3.03;;;;;;;;;;5034331;28;20163;-84
2022/11/13 09:05:26;;;;;;;5.90;3.63;;;15.40;76.10;;;;;;5031739;28;20144;-75
2022/11/13 09:07:59;;;;;;;7.40;4.20;;;15.50;75.90;;;;;;5032988;28;20069;-83
2022/11/13 09:10:26;;;;;;;4.90;3.17;;;15.50;74.50;;;;;;5034809;28;20021;-83
2022/11/13 09:13:00;;;;;;;4.63;3.33;;;15.50;75.30;;;;;;5032521;28;20048;-71
2022/11/13 09:15:27;;;;;;;4.20;3.17;;;15.60;75.40;;;;;;5034807;28;20041;-87
2022/11/13 09:18:00;;;;;;;4.10;3.42;;;15.70;75.10;;;;;;5035003;28;20369;-84
2022/11/13 09:20:27;;;;;;;5.18;3.30;;;15.60;75.40;;;;;;5034311;28;20029;-81
2022/11/13 09:22:57;;;;;;;4.80;3.28;;;15.80;75.60;;;;;;5032122;28;20033;-81
2022/11/13 09:25:23;;;;;;;4.85;3.38;;;15.90;75.80;;;;;;5046451;28;20034;-88
2022/11/13 09:27:58;;;;;;;5.00;4.03;;;;;;;;;;5030086;28;20040;-82
2022/11/13 09:30:24;;;;;;;4.65;3.90;;;16.10;74.80;;;;;;5032612;28;20056;-73
2022/11/13 09:32:56;;;;;;;6.85;4.20;;;16.20;74.60;;;;;;5034030;28;20389;-74
2022/11/13 09:35:35;;;;;;;6.00;4.47;;;16.40;74.80;;;;;;5032787;28;20406;-72
2022/11/13 09:38:06;;;;;;;4.68;3.53;;;16.40;74.70;;;;;;5029566;28;20116;-74
2022/11/13 09:40:36;;;;;;;6.28;4.13;;;16.50;74.40;;;;;;5031406;28;20104;-74
2022/11/13 09:43:05;;;;;;;6.30;4.32;;;16.60;74.20;;;;;;5029729;28;20554;-74
2022/11/13 09:45:31;;;;;;;8.07;4.90;;;16.70;74.00;;;;;;5032206;28;20406;-74
2022/11/13 09:48:09;;;;;;;6.78;4.10;;;16.80;73.70;;;;;;5029674;28;20025;-74
2022/11/13 09:50:35;;;;;;;6.78;5.18;;;16.90;72.70;;;;;;5033293;28;20351;-73
2022/11/13 09:53:03;;;;;;;5.43;4.03;;;16.90;73.50;;;;;;5034338;28;20040;-74
2022/11/13 09:55:34;;;;;;;8.13;4.80;;;17.00;73.40;;;;;;5033110;28;20025;-73
2022/11/13 09:58:11;;;;;;;7.93;5.00;;;17.00;73.90;;;;;;5034970;28;20112;-73
2022/11/13 10:00:37;;;;;;;8.32;4.78;;;17.20;73.50;;;;;;5034855;28;20481;-74
2022/11/13 10:03:38;;;;;;;6.05;4.72;;;17.20;72.90;;;;;;5034575;28;20414;-73
2022/11/13 10:06:07;;;;;;;6.97;4.50;;;17.00;71.70;;;;;;5021201;28;20080;-74
2022/11/13 10:08:57;;;;;;;4.82;3.92;;;17.40;71.00;;;;;;5034576;28;20041;-74
2022/11/13 10:11:53;;;;;;;7.25;4.47;;;17.70;71.10;;;;;;5029501;28;20116;-73
2022/11/13 10:14:22;;;;;;;7.75;5.35;;;18.00;69.70;;;;;;5014827;28;20030;-73
2022/11/13 10:17:15;;;;;;;6.10;4.05;;;18.00;69.90;;;;;;5013301;28;20040;-73
2022/11/13 10:19:59;;;;;;;6.82;4.03;;;18.30;69.80;;;;;;5014528;28;20057;-73
2022/11/13 10:22:30;;;;;;;4.20;3.47;;;18.30;70.20;;;;;;5016476;28;20021;-73
2022/11/13 10:25:05;;;;;;;16.42;4.20;;;18.70;68.60;;;;;;5023122;28;20462;-73
2022/11/13 10:27:31;;;;;;;5.25;4.18;;;18.70;69.40;;;;;;5033760;28;20022;-73
2022/11/13 10:29:57;;;;;;;7.50;4.78;;;19.00;69.20;;;;;;5034364;28;20032;-73
2022/11/13 10:32:26;;;;;;;4.57;3.63;;;18.90;66.90;;;;;;5034101;28;20513;-73
2022/11/13 10:35:15;;;;;;;12.05;4.35;;;19.10;68.30;;;;;;5033982;28;20425;-74
2022/11/13 10:37:40;;;;;;;6.38;4.00;;;19.20;66.90;;;;;;5032257;28;20036;-73
2022/11/13 10:40:06;;;;;;;4.35;3.80;;;19.40;66.80;;;;;;5032648;28;20436;-73
2022/11/13 10:42:38;;;;;;;5.82;4.70;;;19.40;66.30;;;;;;5033627;28;20045;-74
2022/11/13 10:45:12;;;;;;;5.13;3.63;;;19.40;65.40;;;;;;5034140;28;20712;-74
2022/11/13 10:47:47;;;;;;;7.40;4.10;;;19.50;66.90;;;;;;5034156;28;20079;-74
2022/11/13 10:50:23;;;;;;;6.43;4.47;;;19.70;66.00;;;;;;5034071;28;20493;-73
2022/11/13 10:52:50;;;;;;;7.90;5.40;;;20.00;66.40;;;;;;5034219;28;20022;-74
2022/11/13 10:55:38;;;;;;;5.30;4.05;;;20.10;64.60;;;;;;5031600;28;20080;-74
2022/11/13 10:58:15;;;;;;;4.55;3.78;;;20.30;64.20;;;;;;5034034;28;20033;-74
2022/11/13 11:00:43;;;;;;;5.75;3.83;;;20.50;61.40;;;;;;5033750;28;20032;-74
2022/11/13 11:03:28;;;;;;;5.05;4.18;;;20.50;63.90;;;;;;5032704;28;20044;-73
2022/11/13 11:05:55;;;;;;;7.95;3.83;;;20.70;62.40;;;;;;5032773;28;20420;-73
2022/11/13 11:08:41;;;;;;;7.30;4.93;;;20.80;63.50;;;;;;5032663;28;20403;-74
2022/11/13 11:14:23;;;;;;;7.50;4.72;;;20.70;62.70;;;;;;5033083;28;20136;-73
2022/11/13 11:16:51;;;;;;;6.07;4.60;;;20.80;62.90;;;;;;5033768;28;20048;-74
2022/11/13 11:19:21;;;;;;;6.50;4.60;;;20.90;63.30;;;;;;5032068;28;20036;-74
2022/11/13 11:21:50;;;;;;;7.30;4.37;;;21.00;62.10;;;;;;5033456;28;20029;-74
2022/11/13 11:24:33;;;;;;;5.57;4.47;;;21.40;61.50;;;;;;5033611;28;20040;-74
2022/11/13 11:27:34;;;;;;;7.57;5.22;;;22.20;60.70;;;;;;5032012;28;20272;-74
2022/11/13 11:30:14;;;;;;;6.53;4.82;;;23.20;59.60;;;;;;5004672;28;20489;-74
2022/11/13 11:32:55;;;;;;;6.78;4.75;;;23.40;59.30;;;;;;5033656;28;20744;-74
2022/11/13 11:35:33;;;;;;;5.60;4.47;;;24.40;57.10;;;;;;5033407;28;20048;-74
2022/11/13 11:38:07;;;;;;;9.48;5.43;;;25.20;54.80;;;;;;5032109;28;20038;-74
2022/11/13 11:40:47;;;;;;;6.93;5.57;;;26.10;52.20;;;;;;5033860;28;20397;-75
2022/11/13 11:43:13;;;;;;;6.63;5.32;;;;;;;;;;5033614;28;20056;-75
2022/11/13 11:45:51;;;;;;;7.47;4.95;;;;;;;;;;5031653;28;20026;-76
2022/11/13 11:48:21;;;;;;;8.52;4.75;;;25.80;50.20;;;;;;5031342;28;20148;-74
2022/11/13 11:51:10;;;;;;;;;;;25.90;49.40;;;;;;5032585;28;20056;-74
2022/11/13 11:54:01;;;;;;;5.67;5.00;;;26.20;49.70;;;;;;5031998;28;19908;-74
2022/11/13 11:56:30;;;;;;;5.55;4.95;;;;;;;;;;5031436;28;20084;-75
2022/11/13 11:59:23;;;;;;;5.95;4.72;;;27.10;46.70;;;;;;5031696;28;20033;-75
2022/11/13 12:02:09;;;;;;;6.13;4.47;;;27.50;46.80;;;;;;5030794;28;20105;-74
2022/11/13 12:05:00;;;;;;;5.03;4.43;;;27.70;46.30;;;;;;5032749;28;20108;-75
2022/11/13 12:07:40;;;;;;;5.78;4.70;;;28.20;46.50;;;;;;5033170;28;20053;-75
2022/11/13 12:10:32;;;;;;;5.82;5.22;;;28.50;46.10;;;;;;5032848;28;20490;-74
2022/11/13 12:13:16;;;;;;;5.53;4.72;;;28.50;44.70;;;;;;5032942;28;20048;-75
2022/11/13 12:15:54;;;;;;;6.05;4.72;;;28.30;44.90;;;;;;5030996;28;20033;-75
2022/11/13 12:18:58;;;;;;;6.75;5.03;;;27.50;44.90;;;;;;5031209;28;20026;-75
2022/11/13 12:21:57;;;;;;;5.20;4.70;;;26.60;45.70;;;;;;5031801;28;20099;-75
2022/11/13 12:24:36;;;;;;;7.28;4.93;;;26.20;47.00;;;;;;5032736;28;20049;-75
2022/11/13 12:27:20;;;;;;;6.30;4.43;;;26.00;46.80;;;;;;5037155;28;20036;-75
2022/11/13 12:30:11;;;;;;;5.78;4.72;;;25.70;45.30;;;;;;5036415;28;20029;-75
2022/11/13 12:32:54;;;;;;;5.75;4.47;;;25.00;47.50;;;;;;5036781;28;20557;-75
2022/11/13 12:35:27;;;;;;;5.97;4.82;;;;;;;;;;5015167;28;20192;-74
2022/11/13 12:37:56;;;;;;;5.32;4.72;;;24.80;48.50;;;;;;5015438;28;20045;-75
2022/11/13 12:41:00;;;;;;;6.63;4.90;;;24.90;48.70;;;;;;5016389;28;20041;-74
2022/11/13 12:43:41;;;;;;;6.97;5.53;;;25.20;48.50;;;;;;4979676;28;20054;-74
2022/11/13 12:46:21;;;;;;;6.95;4.93;;;;;;;;;;5016726;28;20428;-75
2022/11/13 12:48:48;;;;;;;6.95;5.28;;;;;;;;;;5027544;28;20528;-75
2022/11/13 12:51:17;;;;;;;7.50;4.82;;;25.30;47.80;;;;;;5036739;28;20030;-74
2022/11/13 12:53:46;;;;;;;11.90;5.50;;;;;;;;;;5035470;28;20140;-74
2022/11/13 12:56:18;;;;;;;6.72;4.57;;;;;;;;;;5035563;28;20121;-74
2022/11/13 12:59:21;;;;;;;7.45;4.97;;;24.20;49.30;;;;;;5036297;28;20461;-74
2022/11/13 13:01:57;;;;;;;9.00;5.03;;;;;;;;;;5036330;28;20448;-74
2022/11/13 13:04:46;;;;;;;7.55;5.60;;;23.30;49.80;;;;;;5036453;28;20033;-74
2022/11/13 13:07:37;;;;;;;6.22;5.28;;;22.80;50.70;;;;;;5036493;28;20037;-74
2022/11/13 13:11:01;;;;;;;8.73;5.72;;;22.20;51.90;;;;;;5036324;28;20398;-74
2022/11/13 13:13:52;;;;;;;7.85;4.80;;;21.90;53.00;;;;;;5030085;28;20033;-74